Time;durP1;ratioP1;P1;durP2;ratioP2;P2;SDS_P1;SDS_P2;PMS_P1;PMS_P2;Temp;Humidity;BMP_temperature;BMP_pressure;BME280_temperature;BME280_humidity;BME280_pressure;Samples;Min_cycle;Max_cycle;Signal;HPM_P1;HPM_P2
2023/08/15 00:01:58;;;;;;;2.33;0.45;;;19.10;99.90;;;;;;5029019;28;20041;-71
2023/08/15 00:04:23;;;;;;;2.83;0.80;;;19.10;99.90;;;;;;5028957;28;20029;-72
2023/08/15 00:06:49;;;;;;;4.00;1.13;;;19.10;99.90;;;;;;5010639;28;20053;-72
2023/08/15 00:09:15;;;;;;;4.35;0.80;;;19.10;99.90;;;;;;5028820;28;20351;-71
2023/08/15 00:11:40;;;;;;;4.03;0.70;;;19.10;99.90;;;;;;5025638;28;20045;-71
2023/08/15 00:14:06;;;;;;;2.80;0.50;;;19.10;99.90;;;;;;5010850;28;20045;-72
2023/08/15 00:16:31;;;;;;;3.83;0.80;;;19.10;99.90;;;;;;5009910;28;20067;-70
2023/08/15 00:18:57;;;;;;;3.58;0.82;;;19.10;99.90;;;;;;5028892;28;20078;-71
2023/08/15 00:21:23;;;;;;;6.25;0.95;;;19.00;99.90;;;;;;5028092;28;20041;-72
2023/08/15 00:23:48;;;;;;;3.33;1.02;;;19.00;99.90;;;;;;5028275;28;20056;-71
2023/08/15 00:26:14;;;;;;;3.75;1.10;;;18.90;99.90;;;;;;5010356;28;20026;-70
2023/08/15 00:28:40;;;;;;;4.13;0.80;;;18.90;99.90;;;;;;5027480;28;20059;-72
2023/08/15 00:31:06;;;;;;;6.18;0.93;;;18.90;99.90;;;;;;5010626;28;20037;-71
2023/08/15 00:33:31;;;;;;;3.55;0.77;;;18.90;99.90;;;;;;5009480;28;20034;-71
2023/08/15 00:35:57;;;;;;;2.35;0.70;;;18.90;99.90;;;;;;5028359;28;20030;-71
2023/08/15 00:38:22;;;;;;;3.92;0.75;;;18.90;99.90;;;;;;5010113;28;20030;-72
2023/08/15 00:40:48;;;;;;;4.95;0.70;;;18.90;99.90;;;;;;5027852;28;20022;-71
2023/08/15 00:43:17;;;;;;;4.68;1.00;;;18.90;99.90;;;;;;5010348;28;20033;-70
2023/08/15 00:45:43;;;;;;;3.08;0.90;;;18.90;99.90;;;;;;5009610;28;20036;-72
2023/08/15 00:48:10;;;;;;;2.05;0.63;;;18.90;99.90;;;;;;5028421;28;20033;-71
2023/08/15 00:50:36;;;;;;;6.95;0.90;;;18.90;99.90;;;;;;5009204;28;20177;-72
2023/08/15 00:53:04;;;;;;;4.78;1.00;;;18.90;99.90;;;;;;5010215;28;20045;-71
2023/08/15 00:55:31;;;;;;;5.03;1.08;;;18.90;99.90;;;;;;5026395;28;20095;-71
2023/08/15 00:57:57;;;;;;;4.25;0.80;;;18.90;99.90;;;;;;5026815;28;20041;-72
2023/08/15 01:00:23;;;;;;;5.47;1.00;;;18.80;99.90;;;;;;5009589;28;20044;-71
2023/08/15 01:02:49;;;;;;;3.35;0.80;;;18.90;99.90;;;;;;5027156;28;20108;-72
2023/08/15 01:05:18;;;;;;;5.80;1.30;;;18.80;99.90;;;;;;5028223;28;20041;-70
2023/08/15 01:07:44;;;;;;;4.85;1.27;;;18.80;99.90;;;;;;5009282;28;20658;-70
2023/08/15 01:10:09;;;;;;;4.80;1.50;;;18.80;99.90;;;;;;5027915;28;20091;-72
2023/08/15 01:12:38;;;;;;;7.25;1.33;;;18.80;99.90;;;;;;5017172;28;20065;-72
2023/08/15 01:15:13;;;;;;;5.28;1.23;;;18.70;99.90;;;;;;5010199;28;20041;-71
2023/08/15 01:18:05;;;;;;;2.83;1.00;;;18.70;99.90;;;;;;5026872;28;20397;-71
2023/08/15 01:20:34;;;;;;;5.78;1.67;;;18.70;99.90;;;;;;4976156;28;20522;-70
2023/08/15 01:23:02;;;;;;;4.97;1.15;;;18.70;99.90;;;;;;5009778;28;20034;-70
2023/08/15 01:25:31;;;;;;;5.82;1.10;;;18.70;99.90;;;;;;5008873;28;20501;-70
2023/08/15 01:27:56;;;;;;;5.43;0.98;;;18.70;99.90;;;;;;5027825;28;20038;-69
2023/08/15 01:30:23;;;;;;;6.90;1.70;;;18.70;99.90;;;;;;5027167;28;20060;-71
2023/08/15 01:33:02;;;;;;;4.82;1.08;;;18.70;99.90;;;;;;5009021;28;20103;-70
2023/08/15 01:35:39;;;;;;;9.32;1.52;;;18.80;99.90;;;;;;5002651;28;20045;-72
2023/08/15 01:38:38;;;;;;;7.55;1.20;;;18.70;99.90;;;;;;5027467;28;20041;-72
2023/08/15 01:41:07;;;;;;;5.18;1.48;;;18.70;99.90;;;;;;5026175;28;20060;-71
2023/08/15 01:43:33;;;;;;;2.58;0.73;;;18.60;99.90;;;;;;5026073;28;20054;-70
2023/08/15 01:46:00;;;;;;;7.22;1.10;;;18.60;99.90;;;;;;5027709;28;20076;-70
2023/08/15 01:48:25;;;;;;;6.30;1.38;;;18.50;99.90;;;;;;5026124;28;20063;-73
2023/08/15 01:50:51;;;;;;;4.45;0.85;;;18.50;99.90;;;;;;5027749;28;20033;-70
2023/08/15 01:53:16;;;;;;;8.27;1.67;;;18.40;99.90;;;;;;5009432;28;20032;-70
2023/08/15 01:55:42;;;;;;;7.03;2.05;;;18.40;99.90;;;;;;5026471;28;20389;-72
2023/08/15 01:58:08;;;;;;;5.20;1.13;;;18.40;99.90;;;;;;5026426;28;20051;-71
2023/08/15 02:00:34;;;;;;;7.30;1.95;;;18.30;99.90;;;;;;5008431;28;20030;-71
2023/08/15 02:02:59;;;;;;;5.78;1.23;;;18.30;99.90;;;;;;5009502;28;20671;-71
2023/08/15 02:05:25;;;;;;;6.20;1.20;;;18.20;99.90;;;;;;5029201;28;20042;-71
2023/08/15 02:07:50;;;;;;;6.70;1.20;;;18.20;99.90;;;;;;5035954;28;20444;-72
2023/08/15 02:10:16;;;;;;;9.25;1.63;;;18.20;99.90;;;;;;5040161;28;20490;-71
2023/08/15 02:12:41;;;;;;;6.35;1.10;;;18.10;99.90;;;;;;5027744;28;20029;-70
2023/08/15 02:15:08;;;;;;;4.60;1.40;;;18.10;99.90;;;;;;5016205;28;20057;-70
2023/08/15 02:17:33;;;;;;;8.15;1.83;;;18.10;99.90;;;;;;5033090;28;20037;-72
2023/08/15 02:19:59;;;;;;;4.68;1.65;;;18.10;99.90;;;;;;5015590;28;20081;-71
2023/08/15 02:22:24;;;;;;;9.02;1.83;;;18.10;99.90;;;;;;5015000;28;20041;-71
2023/08/15 02:24:50;;;;;;;3.75;1.92;;;18.10;99.90;;;;;;5033260;28;20036;-71
2023/08/15 02:27:16;;;;;;;5.97;1.60;;;18.00;99.90;;;;;;5015871;28;20040;-71
2023/08/15 02:29:41;;;;;;;6.22;2.25;;;18.00;99.90;;;;;;5032985;28;20094;-72
2023/08/15 02:32:07;;;;;;;6.05;1.58;;;18.00;99.90;;;;;;5016597;28;20393;-70
2023/08/15 02:34:32;;;;;;;5.75;1.85;;;17.90;99.90;;;;;;5016104;28;20037;-70
2023/08/15 02:36:58;;;;;;;6.30;1.60;;;17.90;99.90;;;;;;5032520;28;20044;-71
2023/08/15 02:39:23;;;;;;;4.55;1.75;;;17.90;99.90;;;;;;5016141;28;20084;-71
2023/08/15 02:41:49;;;;;;;4.75;1.58;;;17.90;99.90;;;;;;5015264;28;20048;-70
2023/08/15 02:44:15;;;;;;;3.67;1.83;;;17.90;99.90;;;;;;5047247;28;20435;-70
2023/08/15 02:46:40;;;;;;;4.60;2.00;;;17.90;99.90;;;;;;5027745;28;20053;-72
2023/08/15 02:49:06;;;;;;;6.80;2.20;;;17.90;99.90;;;;;;5033256;28;20025;-72
2023/08/15 02:51:36;;;;;;;3.15;1.65;;;17.90;99.90;;;;;;5014488;28;20063;-71
2023/08/15 02:54:03;;;;;;;3.75;1.38;;;17.80;99.90;;;;;;5029150;28;20025;-71
2023/08/15 02:56:28;;;;;;;11.38;1.90;;;17.80;99.90;;;;;;5030439;28;20033;-71
2023/08/15 02:58:54;;;;;;;9.18;2.00;;;17.80;99.90;;;;;;5014656;28;20033;-71
2023/08/15 03:01:20;;;;;;;5.40;2.15;;;17.80;99.90;;;;;;5033307;28;20045;-71
2023/08/15 03:03:45;;;;;;;6.45;2.55;;;17.80;99.90;;;;;;5014611;28;20049;-71
2023/08/15 03:06:12;;;;;;;4.68;2.05;;;17.70;99.90;;;;;;5015713;28;20076;-71
2023/08/15 03:08:38;;;;;;;5.65;2.13;;;17.70;99.90;;;;;;5032203;28;20060;-71
2023/08/15 03:11:03;;;;;;;10.68;2.15;;;17.70;99.90;;;;;;5032568;28;20033;-71
2023/08/15 03:13:29;;;;;;;5.28;1.55;;;17.70;99.90;;;;;;5032205;28;20095;-71
2023/08/15 03:15:56;;;;;;;8.57;2.63;;;17.70;99.90;;;;;;5015358;28;20037;-71
2023/08/15 03:18:22;;;;;;;3.97;1.75;;;17.70;99.90;;;;;;5029425;28;20026;-73
2023/08/15 03:20:58;;;;;;;6.40;1.50;;;17.70;99.90;;;;;;5029677;28;20500;-71
2023/08/15 03:23:24;;;;;;;4.15;1.63;;;17.70;99.90;;;;;;5023601;28;20121;-71
2023/08/15 03:25:57;;;;;;;5.63;1.65;;;17.70;99.90;;;;;;5029350;28;20037;-71
2023/08/15 03:28:23;;;;;;;6.68;1.50;;;17.70;99.90;;;;;;5011156;28;20124;-72
2023/08/15 03:30:48;;;;;;;4.75;1.60;;;17.70;99.90;;;;;;5029201;28;20109;-70
2023/08/15 03:33:15;;;;;;;8.38;1.85;;;17.60;99.90;;;;;;5012205;28;20397;-72
2023/08/15 03:35:48;;;;;;;4.75;1.45;;;17.60;99.90;;;;;;5010563;28;20088;-71
2023/08/15 03:38:18;;;;;;;8.63;1.75;;;17.60;99.90;;;;;;5029318;28;20128;-72
2023/08/15 03:40:45;;;;;;;4.45;1.73;;;17.60;99.90;;;;;;5028272;28;20037;-72
2023/08/15 03:43:11;;;;;;;7.28;1.40;;;17.60;99.90;;;;;;5010557;28;20041;-71
2023/08/15 03:45:37;;;;;;;7.50;1.83;;;17.60;99.90;;;;;;5009534;28;20048;-72
2023/08/15 03:48:05;;;;;;;4.45;1.45;;;17.50;99.90;;;;;;5029451;28;20072;-71
2023/08/15 03:50:38;;;;;;;3.60;1.10;;;17.50;99.90;;;;;;5009145;28;20061;-71
2023/08/15 03:53:04;;;;;;;6.75;1.55;;;17.40;99.90;;;;;;5029379;28;20038;-72
2023/08/15 03:55:30;;;;;;;5.35;1.40;;;17.40;99.90;;;;;;5010487;28;20053;-72
2023/08/15 03:57:57;;;;;;;5.47;1.55;;;17.40;99.90;;;;;;5007565;28;20088;-72
2023/08/15 04:00:23;;;;;;;6.88;1.58;;;17.30;99.90;;;;;;5011170;28;20553;-74
2023/08/15 04:02:49;;;;;;;5.50;1.77;;;17.30;99.90;;;;;;5037850;28;20498;-71
2023/08/15 04:05:15;;;;;;;8.63;1.25;;;17.30;99.90;;;;;;5029523;28;20041;-72
2023/08/15 04:07:41;;;;;;;7.93;1.88;;;17.30;99.90;;;;;;5010975;28;20037;-72
2023/08/15 04:10:07;;;;;;;5.97;1.45;;;17.30;99.90;;;;;;5028918;28;20623;-72
2023/08/15 04:12:36;;;;;;;6.05;1.40;;;17.20;99.90;;;;;;5027739;28;20137;-72
2023/08/15 04:15:01;;;;;;;2.70;1.20;;;17.20;99.90;;;;;;5011346;28;20072;-72
2023/08/15 04:17:27;;;;;;;4.78;1.40;;;17.20;99.90;;;;;;5027720;28;20493;-72
2023/08/15 04:19:53;;;;;;;5.30;1.60;;;17.10;99.90;;;;;;5011075;28;20026;-72
2023/08/15 04:22:18;;;;;;;5.47;1.50;;;17.10;99.90;;;;;;5028955;28;20029;-70
2023/08/15 04:24:44;;;;;;;7.60;2.33;;;17.10;99.90;;;;;;5010276;28;20036;-70
2023/08/15 04:27:10;;;;;;;7.13;1.65;;;17.10;99.90;;;;;;5029097;28;20022;-70
2023/08/15 04:29:36;;;;;;;6.68;1.30;;;17.10;99.90;;;;;;5027464;28;20057;-72
2023/08/15 04:32:02;;;;;;;5.05;1.50;;;17.10;99.90;;;;;;5010385;28;20072;-71
2023/08/15 04:34:28;;;;;;;5.50;1.60;;;17.10;99.90;;;;;;5009787;28;20562;-70
2023/08/15 04:36:54;;;;;;;5.63;1.50;;;17.10;99.90;;;;;;5010920;28;20118;-70
2023/08/15 04:39:21;;;;;;;3.35;1.40;;;17.10;99.90;;;;;;5028569;28;20037;-71
2023/08/15 04:41:47;;;;;;;8.10;1.85;;;17.10;99.90;;;;;;5009730;28;20887;-70
2023/08/15 04:44:13;;;;;;;5.70;1.98;;;17.10;99.90;;;;;;5028133;28;20029;-70
2023/08/15 04:46:38;;;;;;;10.75;2.35;;;17.10;99.90;;;;;;5026922;28;20037;-72
2023/08/15 04:49:04;;;;;;;9.50;1.90;;;17.10;99.90;;;;;;5010490;28;20029;-72
2023/08/15 04:51:30;;;;;;;8.18;1.55;;;17.10;99.90;;;;;;5027460;28;20095;-72
2023/08/15 04:53:56;;;;;;;9.27;2.45;;;17.10;99.90;;;;;;5010916;28;20045;-72
2023/08/15 04:56:22;;;;;;;6.13;1.65;;;17.20;99.90;;;;;;5010039;28;20642;-69
2023/08/15 04:58:47;;;;;;;8.05;1.58;;;17.20;99.90;;;;;;5006136;28;20037;-71
2023/08/15 05:01:13;;;;;;;5.78;1.58;;;17.20;99.90;;;;;;5028012;28;20025;-70
2023/08/15 05:03:39;;;;;;;7.78;1.65;;;17.20;99.90;;;;;;5009004;28;20038;-72
2023/08/15 05:06:04;;;;;;;5.30;1.63;;;17.20;99.90;;;;;;5010207;28;20041;-70
2023/08/15 05:08:30;;;;;;;6.50;2.15;;;17.20;99.90;;;;;;5009254;28;20025;-71
2023/08/15 05:10:55;;;;;;;9.43;1.88;;;17.20;99.90;;;;;;5028394;28;20078;-71
2023/08/15 05:13:21;;;;;;;7.32;2.13;;;17.20;99.90;;;;;;5014354;28;20113;-71
2023/08/15 05:15:47;;;;;;;7.05;1.80;;;17.20;99.90;;;;;;5002534;28;20517;-71
2023/08/15 05:18:14;;;;;;;8.55;1.52;;;17.20;99.90;;;;;;5000344;28;20056;-70
2023/08/15 05:20:39;;;;;;;8.10;2.05;;;17.20;99.90;;;;;;4994945;28;20183;-71
2023/08/15 05:23:05;;;;;;;8.13;1.70;;;17.20;99.90;;;;;;4998829;28;20053;-71
2023/08/15 05:25:31;;;;;;;5.30;1.58;;;17.20;99.90;;;;;;5004554;28;20117;-71
2023/08/15 05:27:56;;;;;;;8.00;1.80;;;17.20;99.90;;;;;;5022250;28;20425;-71
2023/08/15 05:30:22;;;;;;;5.57;1.88;;;17.30;99.90;;;;;;5014264;28;20104;-73
2023/08/15 05:32:47;;;;;;;8.52;2.08;;;17.30;99.90;;;;;;5001926;28;20052;-70
2023/08/15 05:35:13;;;;;;;3.80;1.60;;;17.30;99.90;;;;;;5017578;28;20025;-71
2023/08/15 05:37:39;;;;;;;5.18;1.27;;;17.40;99.90;;;;;;4996674;28;20410;-71
2023/08/15 05:40:05;;;;;;;9.63;1.75;;;17.40;99.90;;;;;;5011997;28;20731;-71
2023/08/15 05:42:31;;;;;;;6.45;1.65;;;17.50;99.90;;;;;;4995315;28;20038;-71
2023/08/15 05:44:56;;;;;;;7.63;2.17;;;17.50;99.90;;;;;;5017514;28;20026;-71
2023/08/15 05:47:22;;;;;;;7.05;1.60;;;17.50;99.90;;;;;;4995745;28;20022;-71
2023/08/15 05:49:47;;;;;;;10.45;2.03;;;17.60;99.90;;;;;;4999508;28;20022;-71
2023/08/15 05:52:13;;;;;;;9.63;2.10;;;17.60;99.90;;;;;;4998580;28;20041;-71
2023/08/15 05:54:38;;;;;;;9.38;2.53;;;17.70;99.90;;;;;;5014011;28;20245;-71
2023/08/15 05:57:04;;;;;;;8.13;1.85;;;17.70;99.90;;;;;;5018756;28;20041;-71
2023/08/15 05:59:30;;;;;;;11.50;2.42;;;17.80;99.90;;;;;;5015498;28;20424;-72
2023/08/15 06:01:56;;;;;;;5.97;1.85;;;17.90;99.90;;;;;;4996008;28;20073;-71
2023/08/15 06:04:21;;;;;;;10.38;1.70;;;18.10;99.90;;;;;;4995581;28;20520;-71
2023/08/15 06:06:47;;;;;;;8.45;2.50;;;18.30;99.90;;;;;;4997158;28;20693;-71
2023/08/15 06:09:13;;;;;;;7.95;1.67;;;18.60;99.90;;;;;;5011118;28;20053;-71
2023/08/15 06:11:39;;;;;;;6.57;1.40;;;18.80;99.90;;;;;;4998201;28;20064;-72
2023/08/15 06:14:04;;;;;;;7.18;1.60;;;19.00;99.90;;;;;;5019361;28;20544;-71
2023/08/15 06:16:30;;;;;;;8.63;2.22;;;19.10;99.90;;;;;;4998809;28;20722;-71
2023/08/15 06:18:56;;;;;;;7.55;1.52;;;19.20;99.90;;;;;;5015067;28;20029;-71
2023/08/15 06:21:21;;;;;;;9.40;1.55;;;19.20;99.90;;;;;;5020235;28;20643;-70
2023/08/15 06:23:47;;;;;;;7.40;1.85;;;19.30;99.90;;;;;;5017141;28;20041;-70
2023/08/15 06:26:13;;;;;;;8.23;1.52;;;19.40;99.90;;;;;;4995842;28;20033;-71
2023/08/15 06:28:38;;;;;;;11.77;1.77;;;19.40;99.90;;;;;;5010685;28;20061;-71
2023/08/15 06:31:04;;;;;;;3.55;1.13;;;19.40;99.90;;;;;;5004532;28;20045;-71
2023/08/15 06:33:29;;;;;;;6.00;1.60;;;19.50;99.90;;;;;;4995877;28;20405;-70
2023/08/15 06:35:55;;;;;;;8.98;1.92;;;19.50;99.90;;;;;;4998386;28;20045;-70
2023/08/15 06:38:20;;;;;;;11.70;1.52;;;19.50;99.90;;;;;;5004157;28;20030;-70
2023/08/15 06:40:46;;;;;;;6.68;1.35;;;19.50;99.90;;;;;;5016008;28;20091;-71
2023/08/15 06:43:12;;;;;;;6.72;1.20;;;19.50;99.90;;;;;;5012435;28;20058;-71
2023/08/15 06:45:37;;;;;;;11.05;1.92;;;19.60;99.90;;;;;;5015325;28;20053;-72
2023/08/15 06:48:05;;;;;;;12.98;2.55;;;19.60;99.90;;;;;;4998503;28;20033;-71
2023/08/15 06:50:31;;;;;;;11.48;1.40;;;19.70;99.90;;;;;;4999281;28;20397;-71
2023/08/15 06:52:57;;;;;;;11.60;2.47;;;19.70;99.90;;;;;;5017882;28;20145;-71
2023/08/15 06:55:23;;;;;;;10.85;2.10;;;19.70;99.90;;;;;;5021534;28;20121;-73
2023/08/15 06:57:49;;;;;;;6.88;1.52;;;19.70;99.90;;;;;;5017982;28;20454;-71
2023/08/15 07:00:16;;;;;;;9.77;1.83;;;19.80;99.90;;;;;;5014309;28;20054;-70
2023/08/15 07:02:41;;;;;;;6.00;1.35;;;19.90;99.90;;;;;;5005347;28;20037;-71
2023/08/15 07:05:07;;;;;;;5.40;1.27;;;19.90;99.90;;;;;;5020390;28;20037;-70
2023/08/15 07:07:33;;;;;;;9.68;1.67;;;20.00;99.90;;;;;;4993272;28;20045;-72
2023/08/15 07:09:59;;;;;;;5.60;1.30;;;20.00;99.90;;;;;;5004158;28;20087;-72
2023/08/15 07:12:24;;;;;;;7.70;1.73;;;20.10;99.90;;;;;;4999413;28;20049;-69
2023/08/15 07:14:50;;;;;;;7.28;1.55;;;20.10;99.90;;;;;;5019932;28;20033;-71
2023/08/15 07:17:16;;;;;;;14.27;1.52;;;20.10;99.90;;;;;;4998795;28;20117;-71
2023/08/15 07:19:41;;;;;;;8.68;1.70;;;20.50;99.90;;;;;;5015938;28;20067;-71
2023/08/15 07:22:07;;;;;;;6.63;1.48;;;21.40;99.90;;;;;;4999467;28;20087;-71
2023/08/15 07:24:33;;;;;;;6.85;1.20;;;22.40;99.90;;;;;;5014525;28;20080;-72
2023/08/15 07:26:58;;;;;;;6.20;1.20;;;23.20;99.90;;;;;;5006635;28;20033;-71
2023/08/15 07:29:24;;;;;;;7.03;1.40;;;23.70;99.90;;;;;;5016289;28;20057;-70
2023/08/15 07:31:50;;;;;;;7.80;1.67;;;24.00;99.90;;;;;;5015821;28;20038;-71
2023/08/15 07:34:15;;;;;;;8.15;1.90;;;23.90;99.90;;;;;;5001664;28;20057;-71
2023/08/15 07:36:41;;;;;;;3.53;0.98;;;23.80;99.90;;;;;;5014786;28;20856;-72
2023/08/15 07:39:06;;;;;;;7.70;1.40;;;23.60;99.90;;;;;;5014061;28;20097;-71
2023/08/15 07:41:32;;;;;;;7.10;1.15;;;23.30;99.90;;;;;;5016510;28;20037;-74
2023/08/15 07:43:57;;;;;;;5.32;1.20;;;23.00;99.90;;;;;;5000302;28;20098;-72
2023/08/15 07:46:23;;;;;;;7.55;1.20;;;22.70;99.90;;;;;;5012889;28;20041;-72
2023/08/15 07:48:50;;;;;;;8.45;1.27;;;22.50;99.90;;;;;;5012844;28;20033;-70
2023/08/15 07:51:16;;;;;;;5.53;1.20;;;22.40;99.90;;;;;;5021136;28;20042;-73
2023/08/15 07:53:41;;;;;;;5.53;1.40;;;22.30;99.90;;;;;;5004067;28;20041;-71
2023/08/15 07:56:07;;;;;;;7.50;1.50;;;22.30;99.90;;;;;;5015694;28;20037;-71
2023/08/15 07:58:35;;;;;;;4.75;1.50;;;22.30;99.90;;;;;;4999121;28;20042;-72
2023/08/15 08:01:01;;;;;;;5.68;1.60;;;22.30;99.90;;;;;;4993296;28;20049;-72
2023/08/15 08:03:26;;;;;;;8.63;1.98;;;22.30;99.90;;;;;;5012978;28;20099;-70
2023/08/15 08:05:52;;;;;;;5.43;2.03;;;22.30;99.90;;;;;;5004989;28;20445;-71
2023/08/15 08:08:17;;;;;;;4.35;1.60;;;22.30;99.90;;;;;;5004330;28;20049;-73
2023/08/15 08:10:43;;;;;;;5.18;1.45;;;22.30;99.90;;;;;;4994445;28;20489;-71
2023/08/15 08:13:11;;;;;;;4.93;1.52;;;22.30;99.90;;;;;;5002334;28;20029;-71
2023/08/15 08:15:38;;;;;;;3.75;1.40;;;22.50;99.90;;;;;;4989951;28;20049;-71
2023/08/15 08:18:05;;;;;;;5.68;2.10;;;22.70;99.90;;;;;;4997708;28;20021;-70
2023/08/15 08:20:31;;;;;;;6.40;1.65;;;23.00;99.90;;;;;;5000250;28;20052;-70
2023/08/15 08:22:56;;;;;;;5.07;1.67;;;23.10;99.90;;;;;;5002587;28;20037;-70
2023/08/15 08:25:23;;;;;;;5.50;1.45;;;23.20;99.90;;;;;;5017190;28;20038;-70
2023/08/15 08:27:50;;;;;;;7.43;2.17;;;23.00;99.90;;;;;;5017001;28;20056;-72
2023/08/15 08:30:25;;;;;;;10.60;1.90;;;22.80;99.90;;;;;;5003844;28;20191;-71
2023/08/15 08:32:51;;;;;;;5.43;1.67;;;22.50;99.90;;;;;;5000675;28;20033;-72
2023/08/15 08:35:17;;;;;;;3.97;1.50;;;22.20;99.90;;;;;;4997562;28;20489;-70
2023/08/15 08:37:44;;;;;;;6.00;2.17;;;22.10;99.90;;;;;;5000034;28;21671;-70
2023/08/15 08:40:12;;;;;;;11.88;1.63;;;22.00;99.90;;;;;;5018861;28;20060;-70
2023/08/15 08:42:42;;;;;;;8.75;2.22;;;22.00;99.90;;;;;;4996986;28;20053;-71
2023/08/15 08:45:11;;;;;;;8.00;2.17;;;22.20;99.90;;;;;;5005596;28;20056;-72
2023/08/15 08:47:41;;;;;;;11.82;2.30;;;22.40;99.90;;;;;;5009815;28;20129;-72
2023/08/15 08:50:11;;;;;;;7.68;2.08;;;22.50;99.90;;;;;;5006345;28;20520;-71
2023/08/15 08:52:41;;;;;;;5.95;1.42;;;22.70;99.90;;;;;;5001691;28;20034;-71
2023/08/15 08:55:11;;;;;;;;;;;22.90;99.90;;;;;;5002963;28;20038;-71
2023/08/15 08:57:37;;;;;;;8.55;1.80;;;22.90;99.90;;;;;;5013227;28;19913;-72
2023/08/15 09:00:09;;;;;;;5.47;2.20;;;23.00;99.90;;;;;;4999462;28;20026;-71
2023/08/15 09:02:35;;;;;;;5.57;2.03;;;22.90;99.90;;;;;;5019700;28;20104;-72
2023/08/15 09:05:03;;;;;;;4.20;1.60;;;22.90;99.90;;;;;;5016682;28;20026;-72
2023/08/15 09:07:32;;;;;;;6.70;1.92;;;22.80;99.90;;;;;;5013107;28;20070;-72
2023/08/15 09:09:57;;;;;;;8.20;2.00;;;22.70;99.90;;;;;;4999801;28;20045;-72
2023/08/15 09:12:39;;;;;;;7.75;1.63;;;22.70;99.90;;;;;;4999904;28;20033;-72
2023/08/15 09:15:07;;;;;;;8.55;1.92;;;22.60;99.90;;;;;;5006844;28;20402;-71
2023/08/15 09:17:33;;;;;;;4.47;1.95;;;22.50;99.90;;;;;;5008545;28;20034;-71
2023/08/15 09:20:15;;;;;;;13.52;2.45;;;22.40;99.90;;;;;;5001283;28;20045;-71
2023/08/15 09:22:46;;;;;;;6.00;1.45;;;22.30;99.90;;;;;;4991686;28;20042;-71
2023/08/15 09:25:17;;;;;;;8.60;1.70;;;22.20;99.90;;;;;;4995472;28;20033;-72
2023/08/15 09:27:44;;;;;;;4.25;1.58;;;22.10;99.90;;;;;;5011052;28;20084;-70
2023/08/15 09:30:12;;;;;;;5.50;2.25;;;22.00;99.90;;;;;;5022628;28;20025;-71
2023/08/15 09:32:40;;;;;;;5.90;1.77;;;22.00;99.90;;;;;;4999379;28;20046;-71
2023/08/15 09:35:07;;;;;;;6.15;1.95;;;22.00;99.90;;;;;;5013316;28;20104;-70
2023/08/15 09:37:33;;;;;;;6.82;2.03;;;22.00;99.90;;;;;;5017412;28;20042;-70
2023/08/15 09:40:00;;;;;;;9.68;1.73;;;22.00;99.90;;;;;;5014223;28;20040;-70
2023/08/15 09:42:27;;;;;;;2.72;1.52;;;22.00;99.90;;;;;;4995580;28;20065;-71
2023/08/15 09:44:53;;;;;;;2.35;1.45;;;21.90;99.90;;;;;;5013935;28;20025;-71
2023/08/15 09:47:19;;;;;;;5.00;2.00;;;21.90;99.90;;;;;;5018604;28;20048;-71
2023/08/15 09:49:45;;;;;;;5.05;2.33;;;21.80;99.90;;;;;;4996476;28;20038;-70
2023/08/15 09:52:12;;;;;;;9.82;2.33;;;21.80;99.90;;;;;;4995861;28;20033;-70
2023/08/15 09:54:40;;;;;;;8.13;1.35;;;21.70;99.90;;;;;;4998961;28;20398;-72
2023/08/15 09:57:06;;;;;;;3.17;1.30;;;21.80;99.90;;;;;;4993347;28;20038;-72
2023/08/15 09:59:31;;;;;;;9.38;2.03;;;21.80;99.90;;;;;;5009764;28;20042;-72
2023/08/15 10:02:00;;;;;;;5.13;1.40;;;21.90;99.90;;;;;;4997752;28;20030;-71
2023/08/15 10:04:31;;;;;;;3.13;1.25;;;21.80;99.90;;;;;;5010021;28;20120;-70
2023/08/15 10:06:58;;;;;;;9.43;1.40;;;21.70;99.90;;;;;;5005401;28;20041;-70
2023/08/15 10:09:25;;;;;;;5.95;2.63;;;21.50;99.90;;;;;;5019551;28;20045;-71
2023/08/15 10:11:51;;;;;;;6.70;1.40;;;21.50;99.90;;;;;;4987714;28;20029;-71
2023/08/15 10:14:19;;;;;;;7.70;1.85;;;21.50;99.90;;;;;;5016790;28;20083;-71
2023/08/15 10:16:45;;;;;;;7.45;1.88;;;21.60;99.90;;;;;;4990214;28;20129;-71
2023/08/15 10:19:17;;;;;;;3.72;1.50;;;21.80;99.90;;;;;;5015801;28;20145;-71
2023/08/15 10:21:51;;;;;;;4.50;1.85;;;22.10;99.90;;;;;;4993347;28;20446;-72
2023/08/15 10:24:17;;;;;;;5.85;2.15;;;22.40;99.90;;;;;;5009640;28;20042;-71
2023/08/15 10:26:44;;;;;;;5.20;1.55;;;22.90;99.90;;;;;;5015501;28;20038;-72
2023/08/15 10:29:10;;;;;;;4.65;1.15;;;23.10;99.90;;;;;;4998683;28;20469;-73
2023/08/15 10:31:36;;;;;;;5.55;1.48;;;23.10;99.90;;;;;;5008502;28;20053;-72
2023/08/15 10:34:03;;;;;;;3.90;1.27;;;23.10;99.90;;;;;;5012489;28;20029;-73
2023/08/15 10:36:30;;;;;;;4.25;1.20;;;23.20;99.90;;;;;;5000839;28;20054;-74
2023/08/15 10:38:56;;;;;;;5.20;1.00;;;23.20;99.90;;;;;;5001867;28;20111;-71
2023/08/15 10:41:21;;;;;;;5.30;0.98;;;23.10;99.90;;;;;;5000303;28;20053;-71
2023/08/15 10:43:52;;;;;;;4.60;0.68;;;23.10;99.90;;;;;;5008014;28;20041;-71
2023/08/15 10:46:25;;;;;;;5.43;0.82;;;23.10;99.90;;;;;;4999133;28;20033;-72
2023/08/15 10:48:54;;;;;;;2.90;0.75;;;23.20;99.90;;;;;;5016721;28;20141;-70
2023/08/15 10:51:39;;;;;;;3.17;1.10;;;23.30;99.90;;;;;;5020629;28;20033;-72
2023/08/15 10:54:06;;;;;;;4.57;0.90;;;23.70;99.90;;;;;;5017674;28;20484;-70
2023/08/15 10:56:35;;;;;;;10.50;2.05;;;23.80;99.90;;;;;;5000931;28;20041;-72
2023/08/15 10:59:06;;;;;;;8.60;1.95;;;23.80;99.90;;;;;;4996581;28;20037;-71
2023/08/15 11:01:32;;;;;;;3.47;0.65;;;23.70;99.90;;;;;;5015150;28;20041;-71
2023/08/15 11:03:58;;;;;;;3.72;0.60;;;23.80;99.90;;;;;;5025756;28;20870;-71
2023/08/15 11:06:24;;;;;;;4.75;1.00;;;23.90;99.90;;;;;;5000315;28;20037;-71
2023/08/15 11:08:55;;;;;;;6.38;0.75;;;24.10;99.90;;;;;;4997952;28;20049;-71
2023/08/15 11:11:20;;;;;;;2.03;0.60;;;24.10;99.90;;;;;;5017845;28;20116;-71
2023/08/15 11:13:48;;;;;;;4.78;0.65;;;24.00;99.90;;;;;;5023062;28;20052;-72
2023/08/15 11:16:16;;;;;;;3.03;0.63;;;23.70;99.90;;;;;;4998761;28;20111;-71
2023/08/15 11:18:42;;;;;;;2.03;0.57;;;23.50;99.90;;;;;;4997133;28;20398;-74
2023/08/15 11:21:10;;;;;;;2.42;0.88;;;23.20;99.90;;;;;;4997140;28;20501;-71
2023/08/15 11:23:36;;;;;;;4.25;0.93;;;23.10;99.90;;;;;;5014509;28;20133;-71
2023/08/15 11:26:02;;;;;;;0.82;0.50;;;23.10;99.90;;;;;;4993072;28;20041;-73
2023/08/15 11:28:29;;;;;;;1.75;0.50;;;23.10;99.90;;;;;;4997032;28;20046;-72
2023/08/15 11:30:55;;;;;;;0.93;0.47;;;23.30;99.90;;;;;;5016115;28;20536;-70
2023/08/15 11:33:21;;;;;;;5.72;1.15;;;23.60;99.90;;;;;;5011855;28;20034;-72
2023/08/15 11:35:47;;;;;;;1.40;0.80;;;23.90;99.90;;;;;;5009341;28;20083;-71
2023/08/15 11:38:13;;;;;;;1.92;0.65;;;23.90;99.90;;;;;;4996530;28;20030;-71
2023/08/15 11:40:38;;;;;;;1.50;0.60;;;23.90;99.90;;;;;;4996008;28;20054;-72
2023/08/15 11:43:05;;;;;;;1.02;0.52;;;24.00;99.90;;;;;;5002445;28;20128;-72
2023/08/15 11:45:32;;;;;;;0.70;0.40;;;23.90;99.90;;;;;;5001465;28;20042;-73
2023/08/15 11:47:58;;;;;;;0.77;0.60;;;24.00;99.90;;;;;;5021520;28;20037;-71
2023/08/15 11:50:26;;;;;;;0.57;0.30;;;24.00;99.90;;;;;;5032820;28;20026;-72
2023/08/15 11:52:52;;;;;;;0.75;0.20;;;24.00;99.90;;;;;;5003134;28;20033;-72
2023/08/15 11:55:18;;;;;;;0.63;0.30;;;24.10;99.90;;;;;;5016858;28;20044;-73
2023/08/15 11:57:44;;;;;;;1.00;0.45;;;24.30;99.90;;;;;;5001363;28;20136;-71
2023/08/15 12:00:11;;;;;;;0.25;0.20;;;24.40;99.90;;;;;;5015314;28;20038;-71
2023/08/15 12:02:42;;;;;;;5.00;0.47;;;24.40;99.90;;;;;;5021145;28;20121;-71
2023/08/15 12:05:10;;;;;;;0.68;0.45;;;24.50;99.90;;;;;;4992454;28;20541;-71
2023/08/15 12:07:36;;;;;;;0.65;0.22;;;24.50;99.90;;;;;;5018007;28;20386;-71
2023/08/15 12:10:01;;;;;;;1.25;0.65;;;24.60;99.90;;;;;;5016333;28;20030;-71
2023/08/15 12:12:27;;;;;;;0.57;0.38;;;24.50;99.90;;;;;;5017113;28;20045;-72
2023/08/15 12:14:53;;;;;;;0.63;0.50;;;24.60;99.90;;;;;;5015668;28;20030;-71
2023/08/15 12:17:18;;;;;;;1.00;0.47;;;24.70;99.90;;;;;;5002482;28;20052;-71
2023/08/15 12:19:44;;;;;;;1.00;0.30;;;24.60;99.90;;;;;;4992471;28;20038;-72
2023/08/15 12:22:10;;;;;;;1.15;0.60;;;24.50;99.90;;;;;;5017741;28;20084;-72
2023/08/15 12:24:36;;;;;;;0.80;0.63;;;24.50;99.90;;;;;;5018634;28;20030;-72
2023/08/15 12:27:02;;;;;;;1.33;0.60;;;24.50;99.90;;;;;;5014968;28;20481;-71
2023/08/15 12:29:28;;;;;;;0.38;0.30;;;24.40;99.90;;;;;;5001965;28;20037;-71
2023/08/15 12:31:53;;;;;;;0.98;0.65;;;24.40;99.90;;;;;;5019242;28;20030;-71
2023/08/15 12:34:19;;;;;;;3.97;0.50;;;24.50;99.90;;;;;;5018011;28;20056;-70
2023/08/15 12:36:44;;;;;;;0.80;0.40;;;24.50;99.90;;;;;;4996357;28;20140;-71
2023/08/15 12:39:10;;;;;;;1.83;0.50;;;24.40;99.90;;;;;;4996903;28;20064;-72
2023/08/15 12:41:36;;;;;;;1.98;0.50;;;24.30;99.90;;;;;;5015830;28;20513;-70
2023/08/15 12:44:02;;;;;;;2.78;0.40;;;24.50;99.90;;;;;;4994165;28;20135;-71